Time;durP1;ratioP1;P1;durP2;ratioP2;P2;SDS_P1;SDS_P2;PMS_P1;PMS_P2;Temp;Humidity;BMP_temperature;BMP_pressure;BME280_temperature;BME280_humidity;BME280_pressure;Samples;Min_cycle;Max_cycle;Signal;HPM_P1;HPM_P2
2021/09/06 00:00:36;;;;;;;8.88;7.03;;;16.00;99.90;;;;;;5033307;28;20037;-82
2021/09/06 00:03:03;;;;;;;12.07;7.72;;;16.00;99.90;;;;;;5033760;28;20084;-83
2021/09/06 00:05:29;;;;;;;10.63;7.38;;;16.00;99.90;;;;;;5033510;28;20104;-83
2021/09/06 00:07:57;;;;;;;9.23;7.20;;;15.90;99.90;;;;;;5033393;28;20080;-82
2021/09/06 00:10:33;;;;;;;9.57;7.53;;;15.90;99.90;;;;;;5033058;28;20027;-82
2021/09/06 00:13:00;;;;;;;9.45;6.97;;;15.90;99.90;;;;;;5035037;28;20072;-82
2021/09/06 00:15:30;;;;;;;10.07;7.28;;;15.90;99.90;;;;;;5034656;28;20033;-83
2021/09/06 00:17:57;;;;;;;10.88;8.18;;;15.90;99.90;;;;;;5034859;28;20033;-83
2021/09/06 00:20:25;;;;;;;8.63;6.93;;;15.80;99.90;;;;;;5032853;28;20029;-83
2021/09/06 00:22:51;;;;;;;9.20;7.15;;;15.80;99.90;;;;;;5049942;28;20040;-82
2021/09/06 00:25:17;;;;;;;9.57;6.95;;;15.70;99.90;;;;;;5033132;28;20381;-82
2021/09/06 00:27:42;;;;;;;11.32;7.57;;;15.70;99.90;;;;;;5033129;28;20018;-82
2021/09/06 00:30:10;;;;;;;9.70;7.28;;;15.70;99.90;;;;;;5033075;28;20022;-82
2021/09/06 00:32:36;;;;;;;10.10;7.50;;;15.70;99.90;;;;;;5033062;28;20060;-82
2021/09/06 00:35:03;;;;;;;10.25;7.43;;;15.70;99.90;;;;;;5032530;28;20084;-82
2021/09/06 00:37:30;;;;;;;10.40;8.05;;;15.60;99.90;;;;;;5033005;28;20032;-82
2021/09/06 00:39:56;;;;;;;11.10;7.47;;;15.60;99.90;;;;;;5033021;28;20026;-82
2021/09/06 00:42:21;;;;;;;10.73;7.57;;;15.60;99.90;;;;;;5033016;28;20032;-82
2021/09/06 00:44:49;;;;;;;10.88;7.63;;;15.50;99.90;;;;;;5032830;28;20022;-82
2021/09/06 00:47:15;;;;;;;9.75;7.22;;;15.50;99.90;;;;;;5032709;28;20029;-82
2021/09/06 00:49:41;;;;;;;10.45;7.72;;;15.40;99.90;;;;;;5034043;28;20029;-82
2021/09/06 00:52:09;;;;;;;10.40;7.78;;;15.40;99.90;;;;;;5034243;28;20083;-82
2021/09/06 00:54:35;;;;;;;9.15;7.25;;;15.40;99.90;;;;;;5032268;28;20057;-82
2021/09/06 00:57:02;;;;;;;9.07;7.35;;;15.30;99.90;;;;;;5032539;28;20063;-82
2021/09/06 00:59:28;;;;;;;10.57;7.60;;;15.30;99.90;;;;;;5032420;28;20037;-82
2021/09/06 01:01:53;;;;;;;11.52;8.20;;;15.20;99.90;;;;;;5032731;28;20107;-82
2021/09/06 01:04:21;;;;;;;10.73;7.55;;;15.20;99.90;;;;;;5032556;28;20108;-83
2021/09/06 01:06:46;;;;;;;9.75;7.40;;;15.10;99.90;;;;;;5034150;28;20470;-82
2021/09/06 01:09:12;;;;;;;10.35;7.47;;;15.00;99.90;;;;;;5038587;28;20076;-83
2021/09/06 01:11:37;;;;;;;11.00;7.90;;;15.00;99.90;;;;;;5032513;28;20125;-82
2021/09/06 01:14:03;;;;;;;10.32;6.88;;;15.00;99.90;;;;;;5032561;28;20026;-83
2021/09/06 01:16:29;;;;;;;11.13;7.57;;;14.90;99.90;;;;;;5033528;28;20461;-83
2021/09/06 01:18:55;;;;;;;9.20;7.25;;;14.90;99.90;;;;;;5032295;28;20021;-82
2021/09/06 01:21:21;;;;;;;9.30;7.18;;;14.90;99.90;;;;;;5032380;28;20484;-83
2021/09/06 01:23:47;;;;;;;10.65;7.75;;;14.80;99.90;;;;;;5033545;28;20057;-83
2021/09/06 01:26:13;;;;;;;9.38;7.20;;;14.80;99.90;;;;;;5032300;28;20025;-83
2021/09/06 01:28:39;;;;;;;11.00;7.72;;;14.80;99.90;;;;;;5032178;28;20508;-83
2021/09/06 01:31:05;;;;;;;9.77;7.35;;;14.80;99.90;;;;;;5031900;28;20481;-83
2021/09/06 01:33:32;;;;;;;11.05;7.25;;;14.80;99.90;;;;;;5031965;28;20037;-82
2021/09/06 01:35:57;;;;;;;10.30;7.70;;;14.70;99.90;;;;;;5031919;28;20040;-81
2021/09/06 01:38:23;;;;;;;9.88;7.55;;;14.70;99.90;;;;;;5031661;28;20025;-82
2021/09/06 01:40:49;;;;;;;10.15;7.68;;;14.70;99.90;;;;;;5031992;28;20076;-82
2021/09/06 01:43:15;;;;;;;13.90;8.05;;;14.70;99.90;;;;;;5048644;28;20109;-82
2021/09/06 01:45:43;;;;;;;10.00;7.50;;;14.70;99.90;;;;;;5033203;28;20113;-81
2021/09/06 01:48:09;;;;;;;11.30;7.72;;;14.70;99.90;;;;;;5048494;28;20128;-82
2021/09/06 01:50:35;;;;;;;9.27;7.75;;;14.60;99.90;;;;;;5031925;28;20109;-82
2021/09/06 01:53:01;;;;;;;9.93;7.47;;;14.60;99.90;;;;;;5048720;28;20040;-82
2021/09/06 01:55:26;;;;;;;11.50;7.80;;;14.60;99.90;;;;;;5031686;28;20120;-82
2021/09/06 01:57:52;;;;;;;11.95;7.88;;;14.50;99.90;;;;;;5032187;28;20034;-82
2021/09/06 02:00:19;;;;;;;11.35;7.35;;;14.50;99.90;;;;;;5031606;28;20120;-82
2021/09/06 02:02:44;;;;;;;10.65;7.80;;;14.40;99.90;;;;;;5031926;28;20397;-82
2021/09/06 02:05:10;;;;;;;11.82;8.07;;;14.40;99.90;;;;;;5031962;28;20029;-83
2021/09/06 02:07:36;;;;;;;10.15;7.72;;;14.30;99.90;;;;;;5031902;28;20132;-83
2021/09/06 02:10:03;;;;;;;11.15;7.70;;;14.30;99.90;;;;;;5031797;28;20025;-82
2021/09/06 02:12:29;;;;;;;10.63;7.75;;;14.30;99.90;;;;;;5031708;28;20040;-82
2021/09/06 02:14:58;;;;;;;9.95;8.05;;;14.30;99.90;;;;;;5031695;28;20026;-82
2021/09/06 02:17:24;;;;;;;12.40;7.82;;;14.20;99.90;;;;;;5033053;28;20025;-82
2021/09/06 02:19:50;;;;;;;10.63;7.65;;;14.20;99.90;;;;;;5032715;28;20028;-83
2021/09/06 02:22:16;;;;;;;10.80;7.65;;;14.20;99.90;;;;;;5032920;28;20025;-82
2021/09/06 02:24:41;;;;;;;10.65;7.70;;;14.10;99.90;;;;;;5031767;28;20029;-83
2021/09/06 02:27:08;;;;;;;11.40;8.60;;;14.10;99.90;;;;;;5031804;28;20025;-82
2021/09/06 02:29:34;;;;;;;9.88;7.93;;;14.10;99.90;;;;;;5032413;28;20032;-83
2021/09/06 02:32:00;;;;;;;11.77;8.55;;;14.00;99.90;;;;;;5032831;28;20034;-83
2021/09/06 02:34:27;;;;;;;10.90;7.80;;;14.00;99.90;;;;;;5031796;28;20424;-82
2021/09/06 02:36:53;;;;;;;11.38;8.25;;;14.00;99.90;;;;;;5031517;28;20026;-82
2021/09/06 02:39:19;;;;;;;11.05;8.40;;;14.00;99.90;;;;;;5031598;28;20095;-82
2021/09/06 02:41:46;;;;;;;11.60;9.15;;;14.00;99.90;;;;;;5032501;28;20030;-82
2021/09/06 02:44:12;;;;;;;12.13;8.93;;;14.00;99.90;;;;;;5031536;28;20025;-83
2021/09/06 02:46:39;;;;;;;11.70;8.65;;;14.00;99.90;;;;;;5031436;28;20377;-82
2021/09/06 02:49:04;;;;;;;12.02;9.35;;;14.00;99.90;;;;;;5030863;28;20056;-82
2021/09/06 02:51:30;;;;;;;11.05;8.52;;;13.90;99.90;;;;;;5032997;28;20402;-81
2021/09/06 02:53:56;;;;;;;11.63;8.32;;;13.90;99.90;;;;;;5035084;28;20028;-81
2021/09/06 02:56:22;;;;;;;11.38;8.63;;;13.90;99.90;;;;;;5036262;28;20465;-81
2021/09/06 02:58:47;;;;;;;12.25;8.25;;;13.80;99.90;;;;;;5042764;28;20031;-82
2021/09/06 03:01:13;;;;;;;12.18;8.57;;;13.80;99.90;;;;;;5035021;28;20041;-81
2021/09/06 03:03:38;;;;;;;13.15;8.60;;;13.80;99.90;;;;;;5034363;28;20025;-81
2021/09/06 03:06:04;;;;;;;12.57;7.90;;;13.80;99.90;;;;;;5036139;28;20458;-81
2021/09/06 03:08:30;;;;;;;10.55;7.72;;;13.70;99.90;;;;;;5036041;28;20057;-81
2021/09/06 03:10:56;;;;;;;13.20;8.68;;;13.70;99.90;;;;;;5034620;28;20114;-82
2021/09/06 03:13:21;;;;;;;10.10;8.10;;;13.70;99.90;;;;;;5034689;28;20450;-81
2021/09/06 03:15:49;;;;;;;11.10;8.10;;;13.70;99.90;;;;;;5034619;28;20481;-83
2021/09/06 03:18:14;;;;;;;12.68;9.32;;;13.70;99.90;;;;;;5034537;28;20033;-81
2021/09/06 03:20:40;;;;;;;11.73;9.15;;;13.70;99.90;;;;;;5034552;28;20029;-81
2021/09/06 03:23:06;;;;;;;11.43;8.32;;;13.60;99.90;;;;;;5034410;28;20029;-82
2021/09/06 03:25:32;;;;;;;11.80;8.00;;;13.60;99.90;;;;;;5034254;28;20033;-81
2021/09/06 03:27:58;;;;;;;10.57;8.05;;;13.60;99.90;;;;;;5035694;28;20065;-81
2021/09/06 03:30:24;;;;;;;11.20;8.13;;;13.50;99.90;;;;;;5034351;28;20452;-81
2021/09/06 03:32:49;;;;;;;10.05;7.88;;;13.50;99.90;;;;;;5034336;28;20095;-81
2021/09/06 03:35:17;;;;;;;11.52;8.40;;;13.50;99.90;;;;;;5034221;28;20068;-82
2021/09/06 03:37:43;;;;;;;12.48;8.45;;;13.50;99.90;;;;;;5050738;28;20033;-82
2021/09/06 03:40:10;;;;;;;10.93;8.07;;;13.50;99.90;;;;;;5034247;28;20116;-81
2021/09/06 03:42:36;;;;;;;12.05;8.07;;;13.50;99.90;;;;;;5034170;28;20503;-81
2021/09/06 03:45:04;;;;;;;10.15;7.75;;;13.40;99.90;;;;;;5035258;28;20025;-81
2021/09/06 03:47:29;;;;;;;10.52;7.60;;;13.40;99.90;;;;;;5033945;28;20022;-81
2021/09/06 03:49:55;;;;;;;11.02;8.00;;;13.40;99.90;;;;;;5033944;28;20028;-81
2021/09/06 03:52:21;;;;;;;10.73;8.30;;;13.40;99.90;;;;;;5035179;28;20025;-81
2021/09/06 03:54:46;;;;;;;11.98;8.57;;;13.30;99.90;;;;;;5033879;28;20017;-81
2021/09/06 03:57:12;;;;;;;11.60;7.60;;;13.30;99.90;;;;;;5033727;28;20072;-82
2021/09/06 03:59:38;;;;;;;10.50;8.15;;;13.30;99.90;;;;;;5033781;28;20029;-81
2021/09/06 04:02:04;;;;;;;10.25;7.47;;;13.30;99.90;;;;;;5033378;28;20029;-81
2021/09/06 04:04:31;;;;;;;11.15;8.27;;;13.20;99.90;;;;;;5033523;28;20033;-83
2021/09/06 04:06:56;;;;;;;11.90;7.85;;;13.20;99.90;;;;;;5034899;28;20482;-81
2021/09/06 04:09:23;;;;;;;10.82;8.00;;;13.20;99.90;;;;;;5035039;28;20105;-80
2021/09/06 04:11:49;;;;;;;11.32;7.82;;;13.20;99.90;;;;;;5033272;28;20028;-83
2021/09/06 04:14:16;;;;;;;10.57;7.95;;;13.10;99.90;;;;;;5033452;28;20025;-81
2021/09/06 04:16:43;;;;;;;11.13;8.02;;;13.10;99.90;;;;;;5033296;28;20036;-81
2021/09/06 04:19:09;;;;;;;11.35;7.43;;;13.10;99.90;;;;;;5033444;28;20037;-81
2021/09/06 04:21:35;;;;;;;10.70;7.90;;;13.10;99.90;;;;;;5033208;28;20080;-81
2021/09/06 04:24:00;;;;;;;11.05;7.57;;;13.10;99.90;;;;;;5033258;28;20374;-81
2021/09/06 04:26:26;;;;;;;10.68;7.97;;;13.10;99.90;;;;;;5033085;28;20017;-81
2021/09/06 04:28:52;;;;;;;9.80;7.53;;;13.10;99.90;;;;;;5033205;28;20102;-81
2021/09/06 04:31:18;;;;;;;10.52;7.43;;;13.00;99.90;;;;;;5033032;28;20148;-82
2021/09/06 04:33:44;;;;;;;9.95;7.22;;;13.00;99.90;;;;;;5032280;28;20384;-82
2021/09/06 04:36:10;;;;;;;10.45;7.40;;;13.00;99.90;;;;;;5031218;28;20068;-82
2021/09/06 04:38:36;;;;;;;12.60;8.52;;;13.00;99.90;;;;;;5031785;28;20540;-83
2021/09/06 04:41:03;;;;;;;10.85;7.60;;;13.00;99.90;;;;;;5030785;28;20029;-82
2021/09/06 04:43:31;;;;;;;10.38;7.82;;;13.00;99.90;;;;;;5041616;28;20025;-83
2021/09/06 04:45:59;;;;;;;11.70;7.57;;;12.90;99.90;;;;;;5036006;28;20397;-82
2021/09/06 04:48:25;;;;;;;10.27;7.75;;;12.90;99.90;;;;;;5037157;28;20093;-83
2021/09/06 04:50:53;;;;;;;11.43;7.50;;;12.90;99.90;;;;;;5037884;28;20223;-83
2021/09/06 04:53:19;;;;;;;10.82;7.63;;;12.90;99.90;;;;;;5041222;28;20021;-83
2021/09/06 04:55:47;;;;;;;11.23;7.72;;;12.90;99.90;;;;;;5036683;28;20108;-82
2021/09/06 04:58:14;;;;;;;11.55;8.18;;;12.90;99.90;;;;;;5046913;28;20084;-83
2021/09/06 05:00:40;;;;;;;11.05;8.18;;;12.80;99.90;;;;;;5035809;28;20117;-82
2021/09/06 05:03:05;;;;;;;11.30;8.30;;;12.80;99.90;;;;;;5042390;28;20540;-82
2021/09/06 05:05:31;;;;;;;11.13;7.75;;;12.80;99.90;;;;;;5041017;28;20112;-82
2021/09/06 05:07:58;;;;;;;12.57;9.20;;;12.80;99.90;;;;;;5035128;28;20452;-82
2021/09/06 05:10:24;;;;;;;11.32;8.23;;;12.80;99.90;;;;;;5046180;28;20121;-82
2021/09/06 05:12:51;;;;;;;10.93;8.15;;;12.80;99.90;;;;;;5024461;28;20396;-82
2021/09/06 05:15:20;;;;;;;13.90;8.88;;;12.80;99.90;;;;;;5027904;28;20017;-81
2021/09/06 05:17:46;;;;;;;11.65;8.25;;;12.80;99.90;;;;;;5037599;28;20025;-82
2021/09/06 05:20:11;;;;;;;11.15;8.13;;;12.80;99.90;;;;;;5046200;28;20124;-81
2021/09/06 05:22:38;;;;;;;11.15;7.97;;;12.80;99.90;;;;;;5033703;28;20040;-82
2021/09/06 05:25:05;;;;;;;11.63;8.32;;;12.80;99.90;;;;;;5043362;28;20056;-82
2021/09/06 05:27:32;;;;;;;11.27;8.27;;;12.90;99.90;;;;;;5040857;28;20531;-80
2021/09/06 05:29:58;;;;;;;10.70;8.13;;;12.90;99.90;;;;;;5004225;28;20128;-81
2021/09/06 05:32:25;;;;;;;11.68;8.27;;;12.90;99.90;;;;;;5046353;28;20100;-83
2021/09/06 05:34:55;;;;;;;10.13;7.95;;;12.90;99.90;;;;;;5036362;28;20048;-83
2021/09/06 05:37:26;;;;;;;11.23;8.02;;;12.90;99.90;;;;;;5046246;28;20029;-82
2021/09/06 05:39:53;;;;;;;11.68;8.48;;;12.90;99.90;;;;;;5037084;28;20032;-82
2021/09/06 05:42:19;;;;;;;10.30;7.30;;;13.00;99.90;;;;;;5047854;28;20033;-82
2021/09/06 05:44:50;;;;;;;10.65;7.68;;;13.00;99.90;;;;;;5035823;28;20428;-82
2021/09/06 05:47:19;;;;;;;12.20;8.80;;;13.10;99.90;;;;;;5042502;28;20366;-82
2021/09/06 05:49:45;;;;;;;11.52;8.20;;;13.10;99.90;;;;;;5045580;28;20497;-82
2021/09/06 05:52:11;;;;;;;15.75;9.07;;;13.20;99.90;;;;;;5035017;28;20024;-82
2021/09/06 05:54:39;;;;;;;15.18;9.70;;;13.30;99.90;;;;;;5048705;28;20052;-82
2021/09/06 05:57:08;;;;;;;15.20;10.07;;;13.30;99.90;;;;;;5041523;28;20025;-83
2021/09/06 05:59:35;;;;;;;14.45;9.60;;;13.40;99.90;;;;;;5023407;28;20094;-83
2021/09/06 06:02:04;;;;;;;12.45;9.10;;;13.50;99.90;;;;;;5035700;28;20037;-83
2021/09/06 06:04:29;;;;;;;14.43;9.45;;;13.60;99.90;;;;;;5026337;28;20037;-84
2021/09/06 06:06:56;;;;;;;14.80;10.38;;;13.60;99.90;;;;;;5023035;28;20115;-83
2021/09/06 06:09:23;;;;;;;14.95;10.65;;;13.70;99.90;;;;;;5024943;28;20030;-83
2021/09/06 06:11:49;;;;;;;15.27;10.27;;;13.80;99.90;;;;;;5037070;28;20041;-83
2021/09/06 06:14:15;;;;;;;16.80;10.55;;;13.90;99.90;;;;;;5024659;28;20499;-83
2021/09/06 06:16:43;;;;;;;17.45;10.90;;;14.00;99.90;;;;;;5026371;28;20127;-83
2021/09/06 06:19:10;;;;;;;14.82;10.35;;;14.00;99.90;;;;;;5037683;28;20454;-82
2021/09/06 06:21:36;;;;;;;16.73;11.13;;;14.10;99.90;;;;;;4988794;28;20031;-83
2021/09/06 06:24:04;;;;;;;14.15;10.45;;;14.10;99.90;;;;;;5022400;28;20021;-83
2021/09/06 06:26:31;;;;;;;17.25;12.18;;;14.30;99.90;;;;;;5025941;28;20416;-83
2021/09/06 06:29:00;;;;;;;17.17;11.35;;;14.30;99.90;;;;;;5023749;28;20025;-83
2021/09/06 06:31:27;;;;;;;16.27;11.60;;;14.40;99.90;;;;;;5008024;28;20037;-83
2021/09/06 06:33:54;;;;;;;16.52;11.52;;;14.50;99.90;;;;;;5009509;28;20030;-83
2021/09/06 06:36:20;;;;;;;15.18;11.02;;;14.50;99.90;;;;;;5026921;28;20032;-83
2021/09/06 06:38:49;;;;;;;16.77;11.73;;;14.60;99.90;;;;;;5066560;28;20037;-81
2021/09/06 06:41:16;;;;;;;15.55;10.98;;;14.70;99.90;;;;;;5007867;28;20493;-82
2021/09/06 06:43:43;;;;;;;17.33;11.75;;;14.70;99.90;;;;;;5028207;28;20045;-83
2021/09/06 06:46:10;;;;;;;17.20;11.50;;;14.80;99.90;;;;;;5032601;28;20034;-82
2021/09/06 06:48:36;;;;;;;16.23;11.10;;;14.90;99.90;;;;;;5010777;28;20064;-83
2021/09/06 06:51:03;;;;;;;18.05;12.85;;;15.00;99.90;;;;;;5035663;28;20453;-83
2021/09/06 06:53:30;;;;;;;15.82;11.50;;;15.00;99.90;;;;;;5042167;28;20116;-83
2021/09/06 06:55:57;;;;;;;15.32;11.13;;;15.10;99.90;;;;;;5031918;28;20087;-83
2021/09/06 06:58:25;;;;;;;16.55;11.73;;;15.20;99.90;;;;;;5048926;28;20036;-84
2021/09/06 07:00:53;;;;;;;17.45;11.68;;;15.30;99.90;;;;;;5039655;28;20043;-83
2021/09/06 07:03:19;;;;;;;18.77;12.23;;;15.30;99.90;;;;;;5026531;28;20503;-82
2021/09/06 07:05:53;;;;;;;17.45;12.13;;;15.40;99.90;;;;;;5046447;28;20030;-82
2021/09/06 07:08:20;;;;;;;16.73;11.57;;;15.50;99.90;;;;;;5036838;28;20061;-84
2021/09/06 07:10:46;;;;;;;18.45;11.90;;;15.60;99.90;;;;;;5049073;28;20022;-84
2021/09/06 07:13:14;;;;;;;17.38;11.93;;;15.60;99.90;;;;;;5016680;28;20034;-82
2021/09/06 07:15:40;;;;;;;20.20;12.65;;;15.70;99.90;;;;;;5006509;28;20048;-81
2021/09/06 07:18:08;;;;;;;19.15;12.60;;;15.80;99.90;;;;;;5027499;28;20037;-82
2021/09/06 07:20:35;;;;;;;15.52;11.45;;;15.80;99.90;;;;;;5015075;28;20021;-82
2021/09/06 07:23:02;;;;;;;18.23;11.65;;;15.90;99.90;;;;;;5011117;28;20025;-83
2021/09/06 07:25:30;;;;;;;16.23;11.80;;;16.00;99.90;;;;;;5027140;28;20542;-82
2021/09/06 07:27:57;;;;;;;17.90;12.20;;;16.00;99.90;;;;;;5063055;28;20034;-82
2021/09/06 07:30:26;;;;;;;18.25;12.45;;;16.10;99.90;;;;;;5052738;28;20046;-83
2021/09/06 07:32:56;;;;;;;17.08;12.13;;;16.30;99.90;;;;;;5034099;28;20060;-84
2021/09/06 07:35:23;;;;;;;18.60;11.95;;;16.40;99.90;;;;;;5061549;28;20045;-83
2021/09/06 07:37:51;;;;;;;18.27;12.27;;;16.40;99.90;;;;;;5059585;28;20546;-83
2021/09/06 07:40:18;;;;;;;15.18;11.05;;;16.50;99.90;;;;;;5007947;28;20034;-83
2021/09/06 07:42:47;;;;;;;18.40;12.15;;;16.60;99.90;;;;;;5032129;28;20048;-83
2021/09/06 07:45:15;;;;;;;19.30;12.10;;;16.70;99.90;;;;;;5016892;28;20486;-84
2021/09/06 07:47:42;;;;;;;18.73;12.05;;;16.80;99.90;;;;;;5044367;28;20116;-84
2021/09/06 07:50:12;;;;;;;17.88;11.73;;;16.90;99.90;;;;;;5035350;28;20116;-84
2021/09/06 07:52:37;;;;;;;14.88;10.43;;;17.00;99.90;;;;;;5020051;28;20029;-84
2021/09/06 07:55:05;;;;;;;16.67;12.27;;;17.10;99.90;;;;;;5045011;28;20420;-84
2021/09/06 07:57:33;;;;;;;15.45;11.20;;;17.20;99.90;;;;;;5045764;28;20029;-84
2021/09/06 08:00:00;;;;;;;14.73;10.40;;;17.30;99.90;;;;;;5038237;28;20045;-84
2021/09/06 08:02:27;;;;;;;16.63;11.63;;;17.50;99.90;;;;;;5042625;28;20029;-84
2021/09/06 08:04:54;;;;;;;15.88;11.02;;;17.60;99.90;;;;;;5036095;28;20035;-84
2021/09/06 08:07:21;;;;;;;15.23;10.30;;;17.70;99.90;;;;;;5029402;28;20517;-85
2021/09/06 08:09:48;;;;;;;13.95;10.25;;;17.80;99.90;;;;;;4995758;28;20041;-83
2021/09/06 08:12:15;;;;;;;16.33;10.60;;;17.90;99.90;;;;;;5034226;28;20120;-85
2021/09/06 08:14:44;;;;;;;16.05;11.48;;;18.00;99.90;;;;;;5033010;28;20524;-83
2021/09/06 08:17:14;;;;;;;16.40;11.45;;;18.10;99.90;;;;;;5034806;28;20104;-83
2021/09/06 08:19:41;;;;;;;15.65;11.50;;;18.10;99.90;;;;;;5029467;28;20493;-83
2021/09/06 08:22:08;;;;;;;14.57;10.13;;;18.20;99.90;;;;;;5020165;28;20072;-84
2021/09/06 08:24:37;;;;;;;14.73;10.65;;;18.40;99.90;;;;;;5049015;28;20091;-83
2021/09/06 08:27:05;;;;;;;14.60;11.02;;;18.50;99.90;;;;;;5025025;28;20067;-83
2021/09/06 08:29:37;;;;;;;15.27;10.32;;;18.50;99.90;;;;;;5046118;28;20444;-85
2021/09/06 08:32:05;;;;;;;15.27;10.18;;;18.60;99.90;;;;;;5048825;28;20033;-85
2021/09/06 08:34:32;;;;;;;14.95;10.02;;;18.70;99.90;;;;;;5033252;28;20037;-85
2021/09/06 08:36:58;;;;;;;13.82;9.48;;;18.90;99.90;;;;;;5039240;28;20021;-85
2021/09/06 08:39:37;;;;;;;16.20;10.95;;;19.00;99.90;;;;;;5026081;28;20040;-85
2021/09/06 08:42:07;;;;;;;13.15;9.95;;;19.10;99.90;;;;;;5050473;28;20025;-85
2021/09/06 08:44:36;;;;;;;13.50;9.85;;;19.20;99.90;;;;;;5035964;28;20067;-85
2021/09/06 08:47:04;;;;;;;16.65;12.70;;;19.30;99.90;;;;;;5034058;28;20488;-85
2021/09/06 08:49:31;;;;;;;19.65;13.95;;;19.30;99.90;;;;;;5026148;28;20060;-84
2021/09/06 08:51:59;;;;;;;19.23;14.93;;;19.40;99.90;;;;;;5039412;28;20101;-85
2021/09/06 08:54:28;;;;;;;16.20;13.05;;;19.60;99.90;;;;;;5049546;28;20028;-85
2021/09/06 08:57:03;;;;;;;15.30;10.80;;;19.60;99.90;;;;;;5016343;28;20041;-85
2021/09/06 08:59:29;;;;;;;14.88;9.95;;;19.80;99.90;;;;;;5027520;28;20033;-84
2021/09/06 09:01:57;;;;;;;12.18;9.52;;;19.90;99.90;;;;;;5038028;28;20033;-85
2021/09/06 09:04:29;;;;;;;13.05;9.90;;;20.00;99.90;;;;;;5049076;28;20053;-84
2021/09/06 09:07:08;;;;;;;13.02;9.38;;;20.20;99.90;;;;;;5033027;28;20149;-85
2021/09/06 09:09:36;;;;;;;10.80;8.63;;;20.40;99.90;;;;;;5044474;28;20522;-85
2021/09/06 09:12:22;;;;;;;11.50;8.60;;;20.50;99.90;;;;;;5037242;28;20030;-86
2021/09/06 09:14:59;;;;;;;13.63;10.18;;;20.70;99.90;;;;;;5028475;28;20021;-85
2021/09/06 09:17:29;;;;;;;13.52;10.05;;;20.80;99.90;;;;;;5036434;28;20033;-85
2021/09/06 09:20:03;;;;;;;13.27;9.25;;;20.90;99.90;;;;;;5021467;28;20091;-85
2021/09/06 09:22:39;;;;;;;10.35;8.48;;;21.00;99.90;;;;;;5050322;28;20035;-85
2021/09/06 09:25:11;;;;;;;12.52;8.38;;;21.00;99.90;;;;;;5037975;28;20053;-86
2021/09/06 09:27:45;;;;;;;12.73;9.00;;;21.10;99.90;;;;;;5044391;28;20025;-85
2021/09/06 09:30:33;;;;;;;12.52;9.05;;;21.30;99.90;;;;;;5019369;28;20044;-86
2021/09/06 09:33:13;;;;;;;11.93;8.88;;;21.40;99.90;;;;;;5029544;28;20068;-85
2021/09/06 09:35:41;;;;;;;12.27;8.35;;;21.40;99.90;;;;;;5037685;28;20029;-85
2021/09/06 09:38:14;;;;;;;12.52;9.32;;;21.50;99.90;;;;;;5031623;28;20076;-85
2021/09/06 09:40:43;;;;;;;14.15;10.85;;;21.90;99.90;;;;;;5021509;28;20029;-85
2021/09/06 09:43:11;;;;;;;13.25;9.43;;;23.00;99.90;;;;;;5045597;28;20048;-86
2021/09/06 09:45:43;;;;;;;11.27;8.73;;;24.20;99.90;;;;;;5037553;28;20042;-85
2021/09/06 09:48:12;;;;;;;12.25;8.98;;;25.30;99.90;;;;;;5032466;28;20109;-87
2021/09/06 09:50:41;;;;;;;11.75;8.65;;;26.30;99.90;;;;;;5036235;28;20021;-86
2021/09/06 09:53:25;;;;;;;11.98;8.60;;;26.60;99.90;;;;;;5044716;28;20033;-87
2021/09/06 09:55:55;;;;;;;11.45;8.52;;;26.60;99.90;;;;;;5037476;28;20098;-86
2021/09/06 09:58:22;;;;;;;10.50;7.55;;;26.80;99.90;;;;;;5016922;28;20045;-87
2021/09/06 10:00:48;;;;;;;14.15;9.38;;;27.10;99.90;;;;;;5032782;28;20088;-86
2021/09/06 10:03:21;;;;;;;10.93;8.45;;;27.50;99.90;;;;;;5044691;28;20021;-86
2021/09/06 10:05:50;;;;;;;;;;;27.70;99.90;;;;;;5046600;28;20040;-86
2021/09/06 10:08:18;;;;;;;9.82;7.45;;;28.30;99.90;;;;;;5052742;28;19974;-86
2021/09/06 10:10:49;;;;;;;10.05;7.85;;;29.00;99.30;;;;;;5035933;28;20033;-86
2021/09/06 10:13:21;;;;;;;8.68;6.88;;;29.60;98.20;;;;;;5044041;28;20025;-87
2021/09/06 10:16:28;;;;;;;9.30;7.07;;;30.20;97.40;;;;;;5040113;28;20072;-87
2021/09/06 10:19:10;;;;;;;8.55;7.18;;;30.90;96.00;;;;;;5042961;28;20853;-85
2021/09/06 10:21:52;;;;;;;9.95;7.15;;;30.90;94.90;;;;;;5042083;28;20076;-85
2021/09/06 10:24:26;;;;;;;7.90;6.55;;;31.50;94.50;;;;;;5053957;28;20094;-86
2021/09/06 10:27:12;;;;;;;8.57;6.43;;;31.80;93.50;;;;;;5039267;28;20029;-86
2021/09/06 10:29:46;;;;;;;9.43;6.85;;;32.10;92.50;;;;;;5025961;28;20036;-86
2021/09/06 10:32:16;;;;;;;9.00;6.20;;;32.20;91.70;;;;;;5050274;28;20037;-87
2021/09/06 10:34:45;;;;;;;10.98;6.68;;;32.40;91.20;;;;;;5037735;28;20404;-86
2021/09/06 10:37:12;;;;;;;9.18;6.43;;;32.70;89.70;;;;;;5027440;28;20084;-86
2021/09/06 10:39:48;;;;;;;9.07;5.50;;;33.00;88.30;;;;;;5008736;28;20026;-86
2021/09/06 10:42:16;;;;;;;8.25;6.15;;;33.40;86.40;;;;;;5009606;28;20115;-87
2021/09/06 10:44:57;;;;;;;10.10;6.47;;;33.40;84.40;;;;;;5010757;28;20453;-87
2021/09/06 10:47:25;;;;;;;8.63;5.97;;;33.40;82.10;;;;;;5031929;28;20042;-86
2021/09/06 10:49:52;;;;;;;7.13;5.80;;;33.30;81.90;;;;;;5049270;28;20056;-86
2021/09/06 10:52:20;;;;;;;6.90;5.63;;;33.40;80.70;;;;;;5040078;28;20022;-86
2021/09/06 10:54:48;;;;;;;6.78;5.63;;;33.50;79.60;;;;;;5035338;28;20053;-87
2021/09/06 10:57:14;;;;;;;6.75;4.78;;;33.50;77.80;;;;;;5043210;28;20091;-86
2021/09/06 10:59:47;;;;;;;6.90;5.03;;;33.60;77.00;;;;;;5042662;28;20075;-87
2021/09/06 11:02:15;;;;;;;7.10;5.70;;;33.30;76.50;;;;;;5052215;28;20033;-87
2021/09/06 11:04:45;;;;;;;6.32;5.55;;;33.10;75.70;;;;;;5052206;28;20055;-87
2021/09/06 11:07:14;;;;;;;7.13;5.53;;;33.20;75.20;;;;;;5020156;28;20088;-86
2021/09/06 11:09:40;;;;;;;7.22;5.55;;;33.20;74.30;;;;;;5034957;28;20022;-85
2021/09/06 11:12:14;;;;;;;6.50;5.35;;;33.20;73.80;;;;;;5049458;28;20480;-85
2021/09/06 11:14:43;;;;;;;7.72;5.47;;;33.20;73.10;;;;;;5023278;28;20380;-85
2021/09/06 11:17:23;;;;;;;6.68;5.13;;;33.20;72.90;;;;;;5037528;28;20037;-86
2021/09/06 11:20:02;;;;;;;6.57;5.22;;;33.40;72.40;;;;;;5048529;28;20384;-85
2021/09/06 11:22:31;;;;;;;7.25;5.88;;;33.20;71.70;;;;;;5021436;28;20041;-86
2021/09/06 11:25:04;;;;;;;7.55;5.38;;;33.10;71.20;;;;;;5031015;28;20073;-85
2021/09/06 11:27:37;;;;;;;9.82;5.70;;;33.20;70.80;;;;;;5046388;28;20381;-86
2021/09/06 11:30:05;;;;;;;6.63;4.78;;;33.10;70.30;;;;;;5039842;28;20029;-85
2021/09/06 11:32:45;;;;;;;6.72;5.05;;;33.00;70.00;;;;;;5051112;28;20444;-85
2021/09/06 11:35:13;;;;;;;6.82;5.53;;;32.80;69.40;;;;;;5020258;28;20065;-87
2021/09/06 11:37:39;;;;;;;6.13;5.22;;;32.90;69.00;;;;;;5062101;28;20033;-86
2021/09/06 11:40:08;;;;;;;7.07;5.60;;;32.90;68.80;;;;;;5037853;28;20084;-85
2021/09/06 11:42:35;;;;;;;6.40;4.97;;;33.00;68.20;;;;;;5052835;28;20033;-85
2021/09/06 11:45:03;;;;;;;6.38;4.97;;;33.40;67.80;;;;;;5043364;28;20028;-86
2021/09/06 11:47:36;;;;;;;6.32;4.72;;;33.90;67.10;;;;;;5061018;28;20017;-86
2021/09/06 11:50:06;;;;;;;6.55;5.28;;;34.50;66.40;;;;;;5038454;28;20025;-85
2021/09/06 11:52:39;;;;;;;6.20;5.07;;;34.90;65.50;;;;;;5049777;28;20025;-85
2021/09/06 11:55:26;;;;;;;6.25;5.25;;;35.40;64.30;;;;;;5024893;28;20029;-86
2021/09/06 11:58:08;;;;;;;5.60;4.90;;;35.80;63.40;;;;;;5033097;28;20087;-86
2021/09/06 12:00:47;;;;;;;7.07;5.35;;;36.00;62.00;;;;;;5050202;28;20068;-86
2021/09/06 12:03:23;;;;;;;6.20;4.93;;;35.90;60.70;;;;;;5043900;28;20052;-86
2021/09/06 12:06:10;;;;;;;6.97;5.45;;;35.80;59.80;;;;;;5040515;28;20060;-86
2021/09/06 12:08:55;;;;;;;5.95;4.88;;;35.70;59.50;;;;;;5037161;28;20052;-87
2021/09/06 12:11:22;;;;;;;5.57;4.95;;;35.80;59.10;;;;;;5042792;28;20032;-87
2021/09/06 12:14:00;;;;;;;5.40;4.25;;;36.00;57.90;;;;;;5028176;28;20041;-87
2021/09/06 12:16:31;;;;;;;5.38;4.70;;;36.20;57.90;;;;;;5034098;28;20032;-88
2021/09/06 12:19:01;;;;;;;6.00;4.63;;;36.50;57.70;;;;;;5044403;28;20124;-87
2021/09/06 12:21:30;;;;;;;6.60;4.80;;;36.40;56.90;;;;;;5042478;28;20492;-88
2021/09/06 12:24:04;;;;;;;6.72;4.88;;;36.20;56.00;;;;;;5020417;28;20119;-87
2021/09/06 12:26:52;;;;;;;5.50;4.55;;;36.00;55.30;;;;;;5042805;28;20032;-87
2021/09/06 12:29:33;;;;;;;6.18;4.68;;;36.10;55.40;;;;;;5014810;28;20053;-88
2021/09/06 12:32:05;;;;;;;6.00;5.13;;;36.20;54.60;;;;;;5036017;28;20519;-87
2021/09/06 12:34:38;;;;;;;5.88;4.80;;;36.20;54.10;;;;;;5044299;28;20124;-87
2021/09/06 12:37:08;;;;;;;5.57;4.82;;;36.20;54.20;;;;;;5035585;28;20038;-86
2021/09/06 12:40:00;;;;;;;5.88;4.97;;;36.20;54.50;;;;;;5014338;28;20389;-86
2021/09/06 12:42:47;;;;;;;6.63;5.65;;;35.60;53.90;;;;;;5030782;28;20087;-86
2021/09/06 12:45:15;;;;;;;7.07;5.13;;;35.30;55.00;;;;;;5032704;28;20488;-86